Karratha King Bay, Australia
Current Conditions -  °F | °C
As of 4:00 PM on Monday 24 Nov 2014 (Local Time) from YPPD Reporting Station
Clear Clear  
Wind Chill: 95°   Ceiling: Unl
Heat Index: 98°   Visibility: 6mi
Dew Point: 66°   Wind: 16mph
Humidity: 39%   Direction: 320°NW
Pressure: 29.71"   Gusts: NA
Location:  20.62°S, 116.75°E
Report Text: YPPD 240800Z AUTO 32014KT 9999 // NCD 35/19 Q1006
Loading
Personal Weather Stations






























Interactive Weather Map New forecast layout! Learn more

10-Day Weather Forecast

Advertisements
Track Severe Weather on mobile